createdAt,value
2022-12-12T00:01:22.929Z,98427.59
2022-12-12T00:03:50.455Z,98421.91
2022-12-12T00:06:17.890Z,98422.84
2022-12-12T00:08:45.429Z,98428.38
2022-12-12T00:11:13.210Z,98426.44
2022-12-12T00:13:40.789Z,98432.59
2022-12-12T00:16:08.295Z,98433.97
2022-12-12T00:18:37.031Z,98441.25
2022-12-12T00:21:05.558Z,98443.69
2022-12-12T00:23:32.799Z,98441.06
2022-12-12T00:26:01.458Z,98441.19
2022-12-12T00:28:28.771Z,98446.91
2022-12-12T00:30:56.056Z,98458.84
2022-12-12T00:33:23.550Z,98454.09
2022-12-12T00:35:51.674Z,98466.44
2022-12-12T00:38:19.405Z,98467.06
2022-12-12T00:40:47.200Z,98465.88
2022-12-12T00:43:14.481Z,98466.31
2022-12-12T00:45:41.755Z,98460.84
2022-12-12T00:48:09.468Z,98469.75
2022-12-12T00:50:36.720Z,98461.56
2022-12-12T00:53:04.007Z,98462.31
2022-12-12T00:55:31.410Z,98463.09
2022-12-12T00:57:58.723Z,98452.25
2022-12-12T01:00:25.894Z,98451.50
2022-12-12T01:02:55.094Z,98449.25
2022-12-12T01:05:22.319Z,98442.28
2022-12-12T01:07:49.551Z,98452.44
2022-12-12T01:10:17.021Z,98450.31
2022-12-12T01:12:44.242Z,98446.84
2022-12-12T01:15:12.161Z,98446.13
2022-12-12T01:17:39.872Z,98444.63
2022-12-12T01:20:07.900Z,98446.31
2022-12-12T01:22:35.136Z,98448.09
2022-12-12T01:25:02.811Z,98453.25
2022-12-12T01:27:30.199Z,98452.25
2022-12-12T01:30:01.749Z,98453.53
2022-12-12T01:32:29.319Z,98449.09
2022-12-12T01:34:56.469Z,98444.41
2022-12-12T01:37:23.623Z,98445.25
2022-12-12T01:39:51.093Z,98435.38
2022-12-12T01:42:19.009Z,98435.88
2022-12-12T01:44:47.389Z,98439.37
2022-12-12T01:47:15.837Z,98445.00
2022-12-12T01:49:43.228Z,98439.81
2022-12-12T01:52:14.531Z,98427.56
2022-12-12T01:54:42.947Z,98442.91
2022-12-12T01:57:13.875Z,98426.19
2022-12-12T01:59:41.068Z,98421.34
2022-12-12T02:02:08.835Z,98422.22
2022-12-12T02:04:36.305Z,98413.09
2022-12-12T02:07:03.717Z,98414.84
2022-12-12T02:09:31.334Z,98421.81
2022-12-12T02:11:59.245Z,98416.94
2022-12-12T02:14:27.993Z,98425.44
2022-12-12T02:17:01.848Z,98427.09
2022-12-12T02:19:31.998Z,98435.75
2022-12-12T02:22:14.361Z,98430.91
2022-12-12T02:24:50.643Z,98441.91
2022-12-12T02:27:41.111Z,98433.78
2022-12-12T02:30:13.498Z,98437.13
2022-12-12T02:32:59.142Z,98421.28
2022-12-12T02:35:32.507Z,98426.06
2022-12-12T02:38:02.415Z,98425.81
2022-12-12T02:40:32.683Z,98429.94
2022-12-12T02:43:06.754Z,98423.00
2022-12-12T02:45:38.529Z,98423.53
2022-12-12T02:48:29.566Z,98432.09
2022-12-12T02:50:58.450Z,98428.72
2022-12-12T02:53:25.637Z,98429.63
2022-12-12T02:56:03.145Z,98424.13
2022-12-12T02:58:30.601Z,98430.56
2022-12-12T03:01:11.436Z,98427.75
2022-12-12T03:03:59.735Z,98425.13
2022-12-12T03:06:54.885Z,98436.34
2022-12-12T03:09:22.328Z,98440.84
2022-12-12T03:11:56.906Z,98449.72
2022-12-12T03:14:31.423Z,98444.50
2022-12-12T03:17:01.575Z,98456.91
2022-12-12T03:19:29.552Z,98452.59
2022-12-12T03:22:07.235Z,98464.88
2022-12-12T03:24:37.075Z,98468.31
2022-12-12T03:27:05.675Z,98472.41
2022-12-12T03:29:35.015Z,98470.91
2022-12-12T03:32:04.561Z,98479.72
2022-12-12T03:34:34.353Z,98490.38
2022-12-12T03:37:03.540Z,98488.72
2022-12-12T03:39:32.004Z,98490.59
2022-12-12T03:42:25.406Z,98500.03
2022-12-12T03:44:55.423Z,98500.97
2022-12-12T03:47:26.653Z,98506.13
2022-12-12T03:49:54.951Z,98510.62
2022-12-12T03:52:26.459Z,98504.12
2022-12-12T03:54:56.371Z,98516.13
2022-12-12T03:57:25.873Z,98521.38
2022-12-12T04:00:00.323Z,98518.56
2022-12-12T04:02:44.829Z,98528.72
2022-12-12T04:05:16.883Z,98524.84
2022-12-12T04:07:45.566Z,98524.41
2022-12-12T04:10:31.627Z,98523.72
2022-12-12T04:13:22.873Z,98528.66
2022-12-12T04:15:56.422Z,98532.69
2022-12-12T04:18:32.418Z,98536.72
2022-12-12T04:21:34.170Z,98552.59
2022-12-12T04:24:10.516Z,98552.09
2022-12-12T04:26:42.022Z,98556.44
2022-12-12T04:29:09.206Z,98552.66
2022-12-12T04:31:38.801Z,98560.72
2022-12-12T04:34:08.212Z,98560.53
2022-12-12T04:36:35.388Z,98569.50
2022-12-12T04:39:02.964Z,98572.47
2022-12-12T04:41:30.941Z,98562.72
2022-12-12T04:43:58.152Z,98576.09
2022-12-12T04:46:25.966Z,98573.63
2022-12-12T04:49:01.935Z,98575.31
2022-12-12T04:51:30.548Z,98578.31
2022-12-12T04:54:00.833Z,98581.13
2022-12-12T04:56:29.230Z,98585.34
2022-12-12T04:58:56.578Z,98597.09
2022-12-12T05:01:29.958Z,98585.06
2022-12-12T05:03:58.186Z,98589.94
2022-12-12T05:06:30.688Z,98585.91
2022-12-12T05:08:58.024Z,98590.41
2022-12-12T05:11:25.472Z,98589.50
2022-12-12T05:13:52.615Z,98596.25
2022-12-12T05:16:27.054Z,98590.59
2022-12-12T05:18:54.627Z,98592.13
2022-12-12T05:21:21.833Z,98596.81
2022-12-12T05:23:48.961Z,98592.50
2022-12-12T05:26:18.207Z,98592.66
2022-12-12T05:28:45.388Z,98602.88
2022-12-12T05:31:12.699Z,98589.47
2022-12-12T05:33:40.183Z,98596.56
2022-12-12T05:36:07.651Z,98595.88
2022-12-12T05:38:34.822Z,98600.69
2022-12-12T05:41:02.290Z,98598.69
2022-12-12T05:43:29.499Z,98603.91
2022-12-12T05:45:56.700Z,98604.41
2022-12-12T05:48:24.787Z,98607.88
2022-12-12T05:50:52.621Z,98616.63
2022-12-12T05:53:20.172Z,98622.63
2022-12-12T05:55:49.456Z,98616.00
2022-12-12T05:58:16.600Z,98617.50
2022-12-12T06:00:43.748Z,98612.66
2022-12-12T06:03:11.264Z,98620.03
2022-12-12T06:05:38.453Z,98616.16
2022-12-12T06:08:05.673Z,98621.75
2022-12-12T06:10:33.140Z,98614.87
2022-12-12T06:13:00.300Z,98624.62
2022-12-12T06:15:27.489Z,98614.34
2022-12-12T06:17:55.143Z,98620.31
2022-12-12T06:20:22.412Z,98622.78
2022-12-12T06:22:53.718Z,98629.75
2022-12-12T06:25:21.593Z,98634.50
2022-12-12T06:27:48.762Z,98640.72
2022-12-12T06:30:15.934Z,98638.00
2022-12-12T06:32:43.413Z,98639.88
2022-12-12T06:35:11.422Z,98644.59
2022-12-12T06:37:39.047Z,98648.38
2022-12-12T06:40:06.868Z,98651.00
2022-12-12T06:42:34.019Z,98655.81
2022-12-12T06:45:01.149Z,98647.28
2022-12-12T06:47:28.659Z,98658.66
2022-12-12T06:49:55.885Z,98660.91
2022-12-12T06:52:23.073Z,98662.31
2022-12-12T06:54:50.498Z,98667.75
2022-12-12T06:57:17.620Z,98660.59
2022-12-12T06:59:44.760Z,98663.59
2022-12-12T07:02:12.381Z,98661.28
2022-12-12T07:04:39.637Z,98669.38
2022-12-12T07:07:06.874Z,98665.94
2022-12-12T07:09:34.368Z,98668.91
2022-12-12T07:12:01.509Z,98671.84
2022-12-12T07:14:28.650Z,98668.59
2022-12-12T07:16:56.113Z,98671.06
2022-12-12T07:19:23.259Z,98668.75
2022-12-12T07:21:50.507Z,98677.16
2022-12-12T07:24:17.972Z,98680.78
2022-12-12T07:26:45.106Z,98683.50
2022-12-12T07:29:12.274Z,98689.28
2022-12-12T07:31:39.674Z,98679.81
2022-12-12T07:34:06.823Z,98687.72
2022-12-12T07:36:33.988Z,98692.91
2022-12-12T07:39:01.471Z,98697.41
2022-12-12T07:41:28.654Z,98686.44
2022-12-12T07:43:55.840Z,98685.75
2022-12-12T07:46:24.101Z,98692.63
2022-12-12T07:48:52.038Z,98697.59
2022-12-12T07:51:19.274Z,98690.97
2022-12-12T07:53:46.913Z,98689.72
2022-12-12T07:56:15.535Z,98695.50
2022-12-12T07:58:42.807Z,98709.31
2022-12-12T08:01:15.419Z,98706.19
2022-12-12T08:03:46.067Z,98709.50
2022-12-12T08:06:13.747Z,98716.03
2022-12-12T08:08:40.959Z,98726.69
2022-12-12T08:11:09.543Z,98721.97
2022-12-12T08:13:37.196Z,98719.31
2022-12-12T08:16:04.919Z,98723.56
2022-12-12T08:18:32.521Z,98724.03
2022-12-12T08:21:00.389Z,98715.19
2022-12-12T08:23:28.092Z,98724.69
2022-12-12T08:25:55.491Z,98720.28
2022-12-12T08:28:22.634Z,98735.28
2022-12-12T08:30:50.566Z,98729.25
2022-12-12T08:33:18.035Z,98738.41
2022-12-12T08:35:45.445Z,98730.59
2022-12-12T08:38:12.744Z,98736.28
2022-12-12T08:40:41.529Z,98733.34
2022-12-12T08:43:09.343Z,98745.50
2022-12-12T08:45:39.682Z,98742.66
2022-12-12T08:48:07.449Z,98743.13
2022-12-12T08:50:34.712Z,98746.19
2022-12-12T08:53:01.904Z,98740.16
2022-12-12T08:55:30.288Z,98738.34
2022-12-12T08:57:57.454Z,98739.28
2022-12-12T09:00:24.674Z,98742.44
2022-12-12T09:02:52.295Z,98734.19
2022-12-12T09:05:19.540Z,98733.94
2022-12-12T09:07:46.772Z,98731.38
2022-12-12T09:10:14.298Z,98734.94
2022-12-12T09:12:42.013Z,98736.84
2022-12-12T09:15:09.878Z,98723.41
2022-12-12T09:17:37.346Z,98732.25
2022-12-12T09:20:04.793Z,98724.56
2022-12-12T09:22:31.997Z,98730.13
2022-12-12T09:25:00.316Z,98716.34
2022-12-12T09:27:27.496Z,98724.81
2022-12-12T09:29:54.643Z,98721.56
2022-12-12T09:32:24.685Z,98723.78
2022-12-12T09:34:52.217Z,98728.50
2022-12-12T09:37:19.433Z,98743.53
2022-12-12T09:39:46.847Z,98742.69
2022-12-12T09:42:20.222Z,98747.47
2022-12-12T09:44:47.762Z,98737.72
2022-12-12T09:47:17.557Z,98738.44
2022-12-12T09:49:44.716Z,98732.28
2022-12-12T09:52:32.395Z,98733.78
2022-12-12T09:54:59.853Z,98733.97
2022-12-12T09:57:35.631Z,98747.12
2022-12-12T10:00:08.063Z,98747.38
2022-12-12T10:02:44.392Z,98754.97
2022-12-12T10:05:30.851Z,98752.63
2022-12-12T10:08:19.822Z,98750.22
2022-12-12T10:10:48.533Z,98765.87
2022-12-12T10:13:17.901Z,98761.03
2022-12-12T10:15:46.238Z,98750.37
2022-12-12T10:18:31.297Z,98751.94
2022-12-12T10:21:00.911Z,98745.50
2022-12-12T10:23:36.407Z,98751.28
2022-12-12T10:26:07.752Z,98749.31
2022-12-12T10:28:35.175Z,98753.66
2022-12-12T10:31:05.341Z,98754.12
2022-12-12T10:33:47.551Z,98752.97
2022-12-12T10:36:27.223Z,98749.03
2022-12-12T10:38:54.378Z,98759.50
2022-12-12T10:41:25.295Z,98761.50
2022-12-12T10:43:54.537Z,98763.22
2022-12-12T10:46:22.034Z,98775.72
2022-12-12T10:48:49.355Z,98767.28
2022-12-12T10:51:17.990Z,98761.97
2022-12-12T10:53:45.408Z,98761.13
2022-12-12T10:56:13.565Z,98768.81
2022-12-12T10:58:41.978Z,98756.66
2022-12-12T11:01:38.560Z,98769.16
2022-12-12T11:04:08.231Z,98775.25
2022-12-12T11:06:37.233Z,98767.63
2022-12-12T11:09:08.920Z,98771.63
2022-12-12T11:11:36.407Z,98771.56
2022-12-12T11:14:04.057Z,98760.69
2022-12-12T11:16:31.271Z,98778.41
2022-12-12T11:19:05.283Z,98769.69
2022-12-12T11:21:33.629Z,98777.44
2022-12-12T11:24:03.557Z,98780.75
2022-12-12T11:26:31.135Z,98771.09
2022-12-12T11:29:01.789Z,98772.97
2022-12-12T11:31:32.821Z,98785.19
2022-12-12T11:34:04.670Z,98791.81
2022-12-12T11:36:33.663Z,98781.47
2022-12-12T11:39:01.447Z,98786.53
2022-12-12T11:41:28.624Z,98791.59
2022-12-12T11:43:58.093Z,98788.06
2022-12-12T11:46:29.063Z,98789.91
2022-12-12T11:48:59.265Z,98794.97
2022-12-12T11:51:31.239Z,98803.66
2022-12-12T11:53:58.668Z,98802.53
2022-12-12T11:56:45.267Z,98805.66
2022-12-12T11:59:31.709Z,98806.88
2022-12-12T12:02:08.085Z,98800.19
2022-12-12T12:04:38.279Z,98807.19
2022-12-12T12:07:25.929Z,98811.22
2022-12-12T12:09:53.443Z,98820.75
2022-12-12T12:12:25.374Z,98817.34
2022-12-12T12:14:59.078Z,98812.03
2022-12-12T12:17:26.448Z,98816.59
2022-12-12T12:19:57.601Z,98811.31
2022-12-12T12:22:31.069Z,98813.97
2022-12-12T12:25:01.348Z,98816.19
2022-12-12T12:27:41.263Z,98818.47
2022-12-12T12:30:22.307Z,98821.16
2022-12-12T12:32:57.180Z,98813.72
2022-12-12T12:35:31.022Z,98800.62
2022-12-12T12:38:16.781Z,98809.00
2022-12-12T12:40:50.734Z,98820.34
2022-12-12T12:43:20.988Z,98810.53
2022-12-12T12:46:00.884Z,98820.91
2022-12-12T12:48:51.432Z,98822.28
2022-12-12T12:51:18.835Z,98831.56
2022-12-12T12:53:46.014Z,98840.38
2022-12-12T12:56:27.105Z,98834.22
2022-12-12T12:58:55.715Z,98837.63
2022-12-12T13:01:34.218Z,98843.00
2022-12-12T13:04:03.595Z,98841.47
2022-12-12T13:06:36.572Z,98839.78
2022-12-12T13:09:13.672Z,98839.34
2022-12-12T13:11:41.309Z,98845.75
2022-12-12T13:14:30.299Z,98847.50
2022-12-12T13:16:58.184Z,98847.03
2022-12-12T13:19:32.101Z,98842.81
2022-12-12T13:22:01.234Z,98850.50
2022-12-12T13:24:40.142Z,98846.81
2022-12-12T13:27:15.565Z,98844.06
2022-12-12T13:29:46.354Z,98846.19
2022-12-12T13:32:24.740Z,98853.34
2022-12-12T13:34:53.542Z,98854.06
2022-12-12T13:37:21.358Z,98860.78
2022-12-12T13:39:57.465Z,98857.06
2022-12-12T13:42:25.043Z,98858.44
2022-12-12T13:44:52.582Z,98861.16
2022-12-12T13:47:22.866Z,98852.56
2022-12-12T13:49:52.366Z,98862.09
2022-12-12T13:52:23.188Z,98865.78
2022-12-12T13:54:51.969Z,98867.59
2022-12-12T13:57:26.674Z,98855.84
2022-12-12T13:59:54.280Z,98853.75
2022-12-12T14:02:26.195Z,98856.34
2022-12-12T14:05:05.791Z,98855.47
2022-12-12T14:07:32.991Z,98858.25
2022-12-12T14:10:00.530Z,98850.19
2022-12-12T14:12:33.224Z,98855.38
2022-12-12T14:15:01.951Z,98853.13
2022-12-12T14:17:30.857Z,98849.53
2022-12-12T14:19:59.000Z,98847.34
2022-12-12T14:22:27.229Z,98847.72
2022-12-12T14:25:13.402Z,98840.34
2022-12-12T14:27:49.813Z,98847.34
2022-12-12T14:30:33.397Z,98851.31
2022-12-12T14:33:23.918Z,98848.28
2022-12-12T14:35:59.561Z,98852.38
2022-12-12T14:38:33.790Z,98854.53
2022-12-12T14:41:02.186Z,98850.66
2022-12-12T14:43:30.237Z,98857.00
2022-12-12T14:45:58.333Z,98866.44
2022-12-12T14:48:25.625Z,98868.50
2022-12-12T14:50:53.057Z,98867.81
2022-12-12T14:53:24.958Z,98861.16
2022-12-12T14:55:56.468Z,98875.81
2022-12-12T14:58:26.405Z,98863.31
2022-12-12T15:00:55.185Z,98871.00
2022-12-12T15:03:23.723Z,98879.31
2022-12-12T15:06:10.864Z,98876.75
2022-12-12T15:08:38.294Z,98873.84
2022-12-12T15:11:11.117Z,98881.19
2022-12-12T15:13:38.533Z,98884.12
2022-12-12T15:16:05.881Z,98884.50
2022-12-12T15:18:33.228Z,98885.44
2022-12-12T15:21:00.664Z,98896.50
2022-12-12T15:23:27.853Z,98895.50
2022-12-12T15:25:55.094Z,98892.75
2022-12-12T15:28:24.069Z,98897.09
2022-12-12T15:30:53.420Z,98913.81
2022-12-12T15:33:25.004Z,98902.41
2022-12-12T15:35:59.636Z,98905.28
2022-12-12T15:38:28.639Z,98918.66
2022-12-12T15:40:57.359Z,98910.81
2022-12-12T15:43:25.154Z,98925.91
2022-12-12T15:45:53.227Z,98925.94
2022-12-12T15:48:21.030Z,98925.06
2022-12-12T15:50:56.931Z,98925.66
2022-12-12T15:53:25.536Z,98924.16
2022-12-12T15:55:55.720Z,98927.13
2022-12-12T15:58:29.119Z,98923.12
2022-12-12T16:01:21.725Z,98927.63
2022-12-12T16:04:12.883Z,98929.25
2022-12-12T16:06:40.914Z,98928.00
2022-12-12T16:09:11.123Z,98927.37
2022-12-12T16:11:42.800Z,98925.44
2022-12-12T16:14:32.568Z,98912.84
2022-12-12T16:17:10.611Z,98932.69
2022-12-12T16:19:44.514Z,98933.53
2022-12-12T16:22:24.041Z,98923.75
2022-12-12T16:24:52.668Z,98925.87
2022-12-12T16:27:19.835Z,98928.81
2022-12-12T16:29:47.380Z,98929.44
2022-12-12T16:32:15.972Z,98928.44
2022-12-12T16:34:43.268Z,98921.44
2022-12-12T16:37:14.234Z,98931.56
2022-12-12T16:39:41.786Z,98927.37
2022-12-12T16:42:12.881Z,98926.69
2022-12-12T16:44:40.036Z,98925.78
2022-12-12T16:47:17.488Z,98928.63
2022-12-12T16:49:44.716Z,98927.94
2022-12-12T16:52:15.904Z,98931.94
2022-12-12T16:54:46.889Z,98931.38
2022-12-12T16:57:18.662Z,98930.62
2022-12-12T16:59:45.913Z,98932.66
2022-12-12T17:02:17.284Z,98930.12
2022-12-12T17:04:44.799Z,98949.31
2022-12-12T17:07:11.985Z,98939.16
2022-12-12T17:09:39.240Z,98945.19
2022-12-12T17:12:08.892Z,98944.44
2022-12-12T17:14:37.485Z,98945.50
2022-12-12T17:17:05.212Z,98953.31
2022-12-12T17:19:32.770Z,98944.16
2022-12-12T17:22:00.594Z,98946.63
2022-12-12T17:24:28.195Z,98945.84
2022-12-12T17:26:56.006Z,98938.59
2022-12-12T17:29:23.212Z,98937.03
2022-12-12T17:31:50.526Z,98943.34
2022-12-12T17:34:18.207Z,98934.69
2022-12-12T17:36:45.519Z,98930.44
2022-12-12T17:39:12.801Z,98933.97
2022-12-12T17:41:40.288Z,98932.56
2022-12-12T17:44:07.757Z,98929.59
2022-12-12T17:46:34.949Z,98926.50
2022-12-12T17:49:03.289Z,98924.94
2022-12-12T17:51:30.811Z,98921.50
2022-12-12T17:54:00.070Z,98935.13
2022-12-12T17:56:27.790Z,98937.12
2022-12-12T17:58:55.144Z,98949.84
2022-12-12T18:01:26.663Z,98954.34
2022-12-12T18:03:54.513Z,98947.72
2022-12-12T18:06:22.616Z,98953.03
2022-12-12T18:08:49.987Z,98958.31
2022-12-12T18:11:19.370Z,98954.56
2022-12-12T18:13:50.331Z,98954.69
2022-12-12T18:16:18.210Z,98961.28
2022-12-12T18:18:45.606Z,98970.94
2022-12-12T18:21:35.810Z,98970.31
2022-12-12T18:24:04.737Z,98972.50
2022-12-12T18:26:32.583Z,98977.09
2022-12-12T18:29:00.640Z,98970.22
2022-12-12T18:31:29.587Z,98975.16
2022-12-12T18:33:56.991Z,98971.78
2022-12-12T18:36:26.789Z,98973.81
2022-12-12T18:38:58.273Z,98979.87
2022-12-12T18:41:26.490Z,98978.81
2022-12-12T18:43:56.703Z,98981.84
2022-12-12T18:46:27.759Z,98973.38
2022-12-12T18:48:55.349Z,98981.25
2022-12-12T18:51:23.964Z,98984.41
2022-12-12T18:53:51.891Z,98987.81
2022-12-12T18:56:29.310Z,98986.28
2022-12-12T18:58:57.053Z,98995.63
2022-12-12T19:01:25.703Z,98994.22
2022-12-12T19:03:53.541Z,99001.38
2022-12-12T19:06:22.338Z,99009.34
2022-12-12T19:08:49.971Z,99004.84
2022-12-12T19:11:17.292Z,99015.69
2022-12-12T19:13:44.964Z,99022.44
2022-12-12T19:16:14.044Z,99015.06
2022-12-12T19:18:41.845Z,99012.63
2022-12-12T19:21:10.262Z,99022.84
2022-12-12T19:23:38.106Z,99029.00
2022-12-12T19:26:06.178Z,99025.25
2022-12-12T19:28:33.330Z,99037.28
2022-12-12T19:31:00.871Z,99045.44
2022-12-12T19:33:28.195Z,99043.41
2022-12-12T19:35:55.323Z,99043.78
2022-12-12T19:38:24.736Z,99052.47
2022-12-12T19:40:52.100Z,99048.09
2022-12-12T19:43:19.379Z,99053.41
2022-12-12T19:45:47.058Z,99055.66
2022-12-12T19:48:14.325Z,99055.53
2022-12-12T19:50:41.803Z,99051.66
2022-12-12T19:53:09.478Z,99056.00
2022-12-12T19:55:36.937Z,99055.47
2022-12-12T19:58:04.438Z,99052.75
2022-12-12T20:00:31.947Z,99064.53
2022-12-12T20:02:59.604Z,99069.69
2022-12-12T20:05:26.937Z,99084.38
2022-12-12T20:07:54.156Z,99087.13
2022-12-12T20:10:21.641Z,99090.69
2022-12-12T20:12:57.859Z,99083.12
2022-12-12T20:15:26.127Z,99087.28
2022-12-12T20:17:53.520Z,99087.59
2022-12-12T20:20:20.895Z,99096.28
2022-12-12T20:22:48.534Z,99094.00
2022-12-12T20:25:15.747Z,99103.53
2022-12-12T20:27:42.911Z,99104.91
2022-12-12T20:30:10.787Z,99103.44
2022-12-12T20:32:38.014Z,99100.47
2022-12-12T20:35:05.714Z,99099.63
2022-12-12T20:37:33.255Z,99105.75
2022-12-12T20:40:01.980Z,99103.03
2022-12-12T20:42:29.178Z,99099.94
2022-12-12T20:44:56.782Z,99106.38
2022-12-12T20:47:24.033Z,99106.94
2022-12-12T20:49:51.353Z,99104.63
2022-12-12T20:52:20.538Z,99112.28
2022-12-12T20:54:47.783Z,99105.69
2022-12-12T20:57:15.530Z,99107.59
2022-12-12T20:59:44.410Z,99108.06
2022-12-12T21:02:11.733Z,99110.88
2022-12-12T21:04:38.936Z,99111.28
2022-12-12T21:07:06.407Z,99113.66
2022-12-12T21:09:33.669Z,99113.19
2022-12-12T21:12:00.860Z,99118.19
2022-12-12T21:14:30.645Z,99118.16
2022-12-12T21:16:58.058Z,99117.69
2022-12-12T21:19:25.382Z,99121.19
2022-12-12T21:21:53.034Z,99116.59
2022-12-12T21:24:20.322Z,99122.13
2022-12-12T21:26:47.586Z,99121.28
2022-12-12T21:29:15.845Z,99122.69
2022-12-12T21:31:49.910Z,99125.75
2022-12-12T21:34:19.636Z,99123.59
2022-12-12T21:36:46.808Z,99115.63
2022-12-12T21:39:13.979Z,99127.09
2022-12-12T21:41:43.959Z,99119.72
2022-12-12T21:44:11.293Z,99114.91
2022-12-12T21:46:41.832Z,99116.50
2022-12-12T21:49:28.248Z,99113.72
2022-12-12T21:51:56.504Z,99122.44
2022-12-12T21:54:24.013Z,99117.81
2022-12-12T21:56:51.389Z,99126.09
2022-12-12T21:59:18.586Z,99116.09
2022-12-12T22:01:46.056Z,99121.16
2022-12-12T22:04:13.855Z,99116.69
2022-12-12T22:06:41.140Z,99118.16
2022-12-12T22:09:09.656Z,99124.87
2022-12-12T22:11:48.687Z,99121.44
2022-12-12T22:14:16.898Z,99130.63
2022-12-12T22:16:44.781Z,99129.38
2022-12-12T22:19:12.874Z,99131.22
2022-12-12T22:21:40.221Z,99128.06
2022-12-12T22:24:08.200Z,99129.50
2022-12-12T22:26:36.497Z,99130.72
2022-12-12T22:29:13.595Z,99137.34
2022-12-12T22:31:41.219Z,99130.13
2022-12-12T22:34:16.533Z,99120.53
2022-12-12T22:36:44.119Z,99121.50
2022-12-12T22:39:12.834Z,99131.75
2022-12-12T22:41:40.000Z,99124.97
2022-12-12T22:44:07.812Z,99128.44
2022-12-12T22:46:39.211Z,99134.50
2022-12-12T22:49:10.062Z,99129.28
2022-12-12T22:51:37.286Z,99123.97
2022-12-12T22:54:05.248Z,99129.38
2022-12-12T22:56:33.695Z,99127.88
2022-12-12T22:59:00.865Z,99128.09
2022-12-12T23:01:28.189Z,99127.81
2022-12-12T23:03:55.858Z,99132.50
2022-12-12T23:06:24.159Z,99128.72
2022-12-12T23:08:55.542Z,99127.66
2022-12-12T23:11:23.578Z,99132.81
2022-12-12T23:13:50.830Z,99125.28
2022-12-12T23:16:19.198Z,99126.72
2022-12-12T23:18:47.032Z,99130.44
2022-12-12T23:21:17.314Z,99135.06
2022-12-12T23:23:44.926Z,99138.63
2022-12-12T23:26:13.293Z,99139.56
2022-12-12T23:28:40.787Z,99134.56
2022-12-12T23:31:09.121Z,99129.69
2022-12-12T23:33:36.858Z,99144.50
2022-12-12T23:36:04.709Z,99149.78
2022-12-12T23:38:31.930Z,99144.06
2022-12-12T23:41:06.038Z,99152.59
2022-12-12T23:43:33.164Z,99156.00
2022-12-12T23:46:01.712Z,99159.31
2022-12-12T23:48:29.325Z,99156.13
2022-12-12T23:50:56.828Z,99156.78
2022-12-12T23:53:24.315Z,99160.28
2022-12-12T23:55:51.585Z,99158.34
2022-12-12T23:58:18.733Z,99163.88
